Robins Air Force Base
KWRB : now visible

Airfield :











YOU CAN JOIN US ON...

 
LOGIN :

Register | Disclaimer

   EN    FR    IT 

 









Legend :    VFR   Marginal VFR   IFR   Intensive IFR   Very Intensive IFR
Visi :
Ceiling :
>= 8 km
>= 3000ft
5 to 8 km
1000 to 3000 ft
1500m to 5 km
500 to 1000 ft
800 to 1500m
200 to 500 ft
< 800m
< 200 ft
Symbols :   Thunderstorms  Fog  Heavy snow  Heavy precipitations  Wind > 20 kt






- Airport Elevation : 294 ft


KWRB - Robins Air Force Base

CURRENT METAR :
  • 220356Z 00000KT 10SM CLR 07/07 A3017 RMK AO2A SLP219 T00690068

EXPIRED METARs :
  • 220256Z 00000KT 10SM CLR 08/08 A3019 RMK AO2A SLP226 T00810080 57005
  • 220156Z 00000KT 10SM CLR 09/08 A3019 RMK AO2A SLP227 T00860078

TAF TAF KWRB
Valid from the 21 at 21:00 until the 23 at 03:00 UTC


212100Z 2121/2303 VRB06KT 9999 FEW180 QNH3005INS
BECMG 2210/2211 VRB06KT 9000 BR SCT010 QNH3005INS
BECMG 2214/2215 16009KT 9999 NSW SCT050 QNH3003INS
BECMG 2301/2302 VRB06KT 9999 SCT010 QNH3002INS TX20/2220Z TN08/2207Z



MET'MAP, your aeronautical weather chart ! - Copyright ORBIFLY December 2007 - Disclaimer

ORBIFLY MET'MAP TEAM :

Programming & Development : Alexandra Zaïnal
Concept & Development : Baudouin d'Aumeries
Co-Development & Prog : Marc-Olivier Méhu
Technical & hardware support : Manuel Goepfert

Contact : metmap@orbifly.com




SOURCES & CREDITS :

   NOAA       Earth
Advisory